Airfield :
LOGIN :

Register | Disclaimer

   EN    FR    IT 

 










Legend :    VFR   Marginal VFR   IFR   Intensive IFR   Very Intensive IFR
Visi :
Ceiling :
>= 8 km
>= 3000ft
5 to 8 km
1000 to 3000 ft
1500m to 5 km
500 to 1000 ft
800 to 1500m
200 to 500 ft
< 800m
< 200 ft
Symbols :   Thunderstorms  Fog  Heavy snow  Heavy precipitations  Wind > 20 kt
SIGMETs :     Misc.  Thunderstorms  Icing  Turbulence  Mountain Waves  Volcanic Ashes







- Airport Elevation : 28 ft
- IATA code : SOZ
- Download approach charts


LFKS - Solenzara

CURRENT METAR :
  • 180800Z AUTO 05004KT 360V090 CAVOK 28/19 Q1016

EXPIRED METARs :
  • 180730Z AUTO VRB02KT CAVOK 28/19 Q1016
  • 180700Z AUTO 36001KT CAVOK 27/15 Q1016
  • 180630Z AUTO 00000KT CAVOK 26/16 Q1016
  • 180600Z AUTO VRB03KT CAVOK 23/15 Q1016
  • 180530Z AUTO 28005KT CAVOK 23/15 Q1015

TAF TAF LFKS
Valid from the 17 at 09:00 until the 18 at 09:00 UTC


170800Z 1709/1809 10005KT 9999 FEW050
TEMPO 1712/1716 FEW050CB
PROB40
TEMPO 1712/1716 -TSRA
No reported NOTAMs for that airfield.
2 SIGMETs reported for the Marseille FIR (LFMM) :
 
Embedded thunderstorms
LFMM SIGMET 2 VALID 180800/181000 LFPW
LFMM MARSEILLE FIR/UIR EMBD TS FCST WI N3900 E00800 - N3900 E00430 - N4000 E00430 - N3900 E00800 TOP FL400 MOV SE 10KT NC=
Embedded thunderstorms
LFMM SIGMET 1 VALID 180620/180800 LFPW
LFMM MARSEILLE FIR/UIR EMBD TS FCST WI N3900 E00730 - N3900 E00430 - N3945 E00430 - N3930 E00615 - N3900 E00730 TOP FL370 MOV SE 10KT NC=



MET'MAP, your aeronautical weather chart ! - Copyright ORBIFLY December 2007 - Disclaimer

ORBIFLY MET'MAP TEAM :

Programming & Development : Alexandra Zaïnal
Concept & Development : Baudouin d'Aumeries
Co-Development & Prog : Marc-Olivier Méhu
Technical & hardware support : Manuel Goepfert

Contact : metmap@orbifly.com




SOURCES & CREDITS :

   NOAA